Time;durP1;ratioP1;P1;durP2;ratioP2;P2;SDS_P1;SDS_P2;PMS_P1;PMS_P2;Temp;Humidity;BMP_temperature;BMP_pressure;BME280_temperature;BME280_humidity;BME280_pressure;Samples;Min_cycle;Max_cycle;Signal;HPM_P1;HPM_P2
2023/04/18 00:01:15;;;;;;;10.77;5.07;;;;;;;16.01;100.00;100608.19;2069941;28;20587;-75
2023/04/18 00:02:38;;;;;;;11.65;5.30;;;;;;;15.99;100.00;100607.31;2076665;28;20057;-74
2023/04/18 00:04:01;;;;;;;12.07;5.72;;;;;;;16.00;100.00;100615.31;2072112;28;20050;-74
2023/04/18 00:05:25;;;;;;;7.78;4.10;;;;;;;16.01;100.00;100619.72;2076292;28;20137;-74
2023/04/18 00:06:48;;;;;;;10.68;5.10;;;;;;;16.04;100.00;100624.13;2079829;28;20049;-75
2023/04/18 00:08:11;;;;;;;9.52;5.00;;;;;;;16.08;100.00;100623.22;2067131;28;20112;-74
2023/04/18 00:09:33;;;;;;;10.13;5.35;;;;;;;16.10;100.00;100626.75;2074011;28;20049;-75
2023/04/18 00:10:54;;;;;;;10.93;5.55;;;;;;;16.12;100.00;100627.63;2075323;28;20054;-75
2023/04/18 00:12:17;;;;;;;9.50;5.35;;;;;;;16.12;100.00;100617.84;2063015;28;20077;-74
2023/04/18 00:13:39;;;;;;;9.73;4.75;;;;;;;16.12;100.00;100628.50;2079743;28;20268;-74
2023/04/18 00:15:02;;;;;;;11.02;5.10;;;;;;;16.11;100.00;100623.19;2077010;28;20042;-74
2023/04/18 00:16:25;;;;;;;11.10;5.10;;;;;;;16.11;100.00;100626.72;2069523;28;20049;-74
2023/04/18 00:17:48;;;;;;;14.05;5.57;;;;;;;16.12;100.00;100627.63;2081868;28;20143;-74
2023/04/18 00:19:13;;;;;;;7.05;4.45;;;;;;;16.13;100.00;100630.28;2078619;28;20057;-75
2023/04/18 00:20:37;;;;;;;8.68;4.20;;;;;;;16.12;100.00;100624.94;2081538;28;20074;-75
2023/04/18 00:22:01;;;;;;;8.23;4.18;;;;;;;16.12;100.00;100639.16;2078848;28;20442;-75
2023/04/18 00:23:27;;;;;;;9.65;3.90;;;;;;;16.13;100.00;100624.06;2078640;28;20128;-74
2023/04/18 00:24:48;;;;;;;10.50;4.38;;;;;;;16.12;100.00;100627.63;2077813;28;20075;-74
2023/04/18 00:26:10;;;;;;;9.60;3.70;;;;;;;16.11;100.00;100637.38;2063536;28;20050;-74
2023/04/18 00:27:32;;;;;;;9.00;3.67;;;;;;;16.13;100.00;100646.25;2069672;28;20053;-75
2023/04/18 00:28:54;;;;;;;7.85;3.83;;;;;;;16.13;100.00;100637.38;2068423;28;20050;-74
2023/04/18 00:30:15;;;;;;;8.63;4.22;;;;;;;16.15;100.00;100633.78;2076272;28;20049;-74
2023/04/18 00:31:38;;;;;;;9.10;4.57;;;;;;;16.18;100.00;100646.19;2069360;28;20100;-74
2023/04/18 00:32:59;;;;;;;8.77;4.75;;;;;;;16.18;100.00;100632.88;2075039;28;20053;-74
2023/04/18 00:34:23;;;;;;;9.23;4.35;;;;;;;16.16;100.00;100634.66;2078101;28;20145;-75
2023/04/18 00:35:48;;;;;;;7.38;4.32;;;;;;;16.13;100.00;100629.38;2070857;28;20049;-74
2023/04/18 00:37:10;;;;;;;9.93;4.82;;;;;;;16.12;100.00;100628.50;2070963;28;20057;-74
2023/04/18 00:38:32;;;;;;;10.45;5.20;;;;;;;16.10;100.00;100626.75;2069206;28;20085;-75
2023/04/18 00:39:54;;;;;;;10.77;4.43;;;;;;;16.07;100.00;100630.31;2077208;28;20049;-74
2023/04/18 00:41:17;;;;;;;8.23;4.20;;;;;;;16.06;100.00;100633.00;2075702;28;20050;-74
2023/04/18 00:42:38;;;;;;;8.23;4.57;;;;;;;16.04;100.00;100625.00;2075257;28;20045;-74
2023/04/18 00:44:02;;;;;;;9.93;4.50;;;;;;;16.03;100.00;100625.91;2070643;28;20112;-75
2023/04/18 00:45:23;;;;;;;8.32;5.35;;;;;;;16.05;100.00;100615.25;2066884;28;20042;-75
2023/04/18 00:46:46;;;;;;;11.00;5.20;;;;;;;16.00;100.00;100614.41;2071160;28;20052;-74
2023/04/18 00:48:08;;;;;;;10.40;5.65;;;;;;;15.95;100.00;100610.00;2068146;28;20395;-75
2023/04/18 00:49:32;;;;;;;14.05;5.80;;;;;;;15.92;100.00;100618.03;2076629;28;20540;-74
2023/04/18 00:50:54;;;;;;;10.27;5.25;;;;;;;15.85;100.00;100615.44;2076311;28;20045;-74
2023/04/18 00:52:17;;;;;;;;;;;;;;;15.74;100.00;100618.19;2068424;28;20045;-75
2023/04/18 00:53:40;;;;;;;;;;;;;;;15.59;100.00;100617.41;2061261;28;19925;-74
2023/04/18 00:55:02;;;;;;;11.43;5.75;;;;;;;15.53;100.00;100621.88;2073798;28;20016;-74
2023/04/18 00:56:25;;;;;;;13.48;6.13;;;;;;;15.57;100.00;100619.19;2077153;28;20044;-74
2023/04/18 00:57:46;;;;;;;9.70;5.68;;;;;;;15.60;100.00;100613.84;2076166;28;20579;-74
2023/04/18 00:59:10;;;;;;;15.85;6.15;;;;;;;15.64;100.00;100604.94;2075524;28;20037;-75
2023/04/18 01:00:31;;;;;;;10.65;4.97;;;;;;;15.65;100.00;100607.59;2072938;28;20414;-75
2023/04/18 01:01:53;;;;;;;12.40;4.97;;;;;;;15.66;100.00;100605.81;2082497;28;20520;-74
2023/04/18 01:03:16;;;;;;;8.23;4.32;;;;;;;15.66;100.00;100612.03;2079924;28;20041;-74
2023/04/18 01:04:42;;;;;;;9.27;4.68;;;;;;;15.66;100.00;100609.38;2077618;28;20045;-74
2023/04/18 01:06:04;;;;;;;11.30;5.22;;;;;;;15.65;100.00;100612.91;2070808;28;20170;-74
2023/04/18 01:07:30;;;;;;;12.77;5.55;;;;;;;15.63;100.00;100612.03;2068083;28;20119;-75
2023/04/18 01:08:52;;;;;;;13.07;6.20;;;;;;;15.60;100.00;100611.19;2061710;28;20086;-74
2023/04/18 01:10:14;;;;;;;;;;;;;;;15.57;100.00;100613.84;2069313;28;20398;-75
2023/04/18 01:11:36;;;;;;;12.32;6.03;;;;;;;15.57;100.00;100613.84;2069265;28;19924;-74
2023/04/18 01:13:16;;;;;;;11.90;6.18;;;;;;;15.58;100.00;100611.19;2076949;28;20140;-74
2023/04/18 01:14:42;;;;;;;11.07;6.05;;;;;;;15.52;100.00;100616.53;2070438;28;20049;-74
2023/04/18 01:16:03;;;;;;;10.57;6.40;;;;;;;15.48;100.00;100609.47;2075650;28;20822;-74
2023/04/18 01:17:27;;;;;;;16.60;6.70;;;;;;;15.46;100.00;100616.56;2070059;28;20045;-74
2023/04/18 01:18:48;;;;;;;13.27;6.22;;;;;;;15.49;100.00;100611.25;2068918;28;20129;-74
2023/04/18 01:20:15;;;;;;;12.65;6.13;;;;;;;15.53;100.00;100613.00;2076308;28;20049;-74
2023/04/18 01:21:40;;;;;;;10.25;5.68;;;;;;;15.56;100.00;100612.97;2069494;28;20541;-74
2023/04/18 01:23:04;;;;;;;10.23;5.78;;;;;;;15.59;100.00;100610.31;2075655;28;20536;-74
2023/04/18 01:24:31;;;;;;;9.30;5.53;;;;;;;15.63;100.00;100617.34;2078838;28;20077;-75
2023/04/18 01:25:53;;;;;;;11.90;5.78;;;;;;;15.67;100.00;100607.59;2078592;28;20467;-74
2023/04/18 01:27:15;;;;;;;12.02;5.75;;;;;;;15.69;100.00;100617.31;2070338;28;20050;-74
2023/04/18 01:28:36;;;;;;;12.43;5.50;;;;;;;15.73;100.00;100621.75;2075761;28;20049;-74
2023/04/18 01:29:59;;;;;;;10.45;5.10;;;;;;;15.74;100.00;100615.53;2070533;28;20038;-74
2023/04/18 01:31:25;;;;;;;11.38;6.13;;;;;;;15.72;100.00;100614.66;2068122;28;20054;-74
2023/04/18 01:32:46;;;;;;;11.55;6.03;;;;;;;15.71;100.00;100609.31;2067299;28;20099;-74
2023/04/18 01:34:09;;;;;;;13.32;6.18;;;;;;;15.69;100.00;100617.31;2075207;28;20666;-75
2023/04/18 01:35:32;;;;;;;12.48;6.03;;;;;;;15.68;100.00;100606.72;2070505;28;20470;-74
2023/04/18 01:36:54;;;;;;;13.25;7.72;;;;;;;15.66;100.00;100612.03;2078398;28;20056;-75
2023/04/18 01:38:15;;;;;;;12.35;7.38;;;;;;;15.64;100.00;100616.47;2069806;28;20375;-75
2023/04/18 01:39:39;;;;;;;13.98;7.47;;;;;;;15.57;100.00;100624.50;2073715;28;20058;-74
2023/04/18 01:41:02;;;;;;;14.90;7.43;;;;;;;15.41;100.00;100613.94;2078364;28;20099;-74
2023/04/18 01:42:24;;;;;;;12.65;7.72;;;;;;;15.30;100.00;100622.88;2084332;28;20045;-74
2023/04/18 01:43:45;;;;;;;16.23;7.47;;;;;;;15.22;100.00;100616.72;2069792;28;20050;-74
2023/04/18 01:45:09;;;;;;;13.35;8.15;;;;;;;15.17;100.00;100624.72;2075674;28;20077;-75
2023/04/18 01:46:31;;;;;;;15.05;8.27;;;;;;;15.18;100.00;100630.91;2070156;28;20581;-74
2023/04/18 01:47:56;;;;;;;15.73;8.70;;;;;;;15.21;100.00;100628.25;2069938;28;20091;-74
2023/04/18 01:49:17;;;;;;;12.27;7.28;;;;;;;15.24;100.00;100623.78;2075838;28;20044;-74
2023/04/18 01:50:40;;;;;;;12.75;7.13;;;;;;;15.27;100.00;100625.56;2072872;28;20536;-75
2023/04/18 01:52:01;;;;;;;15.80;6.50;;;;;;;15.29;100.00;100619.34;2070259;28;20116;-74
2023/04/18 01:53:24;;;;;;;11.57;5.68;;;;;;;15.30;100.00;100614.88;2065780;28;20061;-75
2023/04/18 01:54:48;;;;;;;9.77;5.65;;;;;;;15.32;100.00;100615.78;2067058;28;20111;-74
2023/04/18 01:56:09;;;;;;;12.63;5.82;;;;;;;15.33;100.00;100626.41;2083607;28;20574;-74
2023/04/18 01:57:32;;;;;;;11.32;5.70;;;;;;;15.33;100.00;100618.44;2070814;28;20054;-74
2023/04/18 01:58:54;;;;;;;10.13;5.82;;;;;;;15.33;100.00;100621.09;2067860;28;20062;-75
2023/04/18 02:00:19;;;;;;;12.50;6.40;;;;;;;15.33;100.00;100618.44;2077535;28;20067;-74
2023/04/18 02:01:40;;;;;;;9.63;5.60;;;;;;;15.32;100.00;100618.44;2070489;28;20108;-75
2023/04/18 02:03:02;;;;;;;11.43;6.25;;;;;;;15.29;100.00;100623.78;2065123;28;20749;-74
2023/04/18 02:04:25;;;;;;;13.35;6.18;;;;;;;15.24;100.00;100623.78;2065729;28;20099;-75
2023/04/18 02:05:47;;;;;;;11.25;6.63;;;;;;;15.22;100.00;100617.63;2070521;28;20050;-75
2023/04/18 02:07:08;;;;;;;13.90;7.07;;;;;;;15.21;100.00;100622.94;2066390;28;20046;-74
2023/04/18 02:08:34;;;;;;;12.38;6.35;;;;;;;15.21;100.00;100623.81;2068626;28;20269;-75
2023/04/18 02:10:01;;;;;;;11.80;7.18;;;;;;;15.22;100.00;100620.28;2067285;28;20510;-74
2023/04/18 02:11:22;;;;;;;12.57;6.47;;;;;;;15.26;100.00;100623.78;2076077;28;20033;-75
2023/04/18 02:12:44;;;;;;;11.40;7.05;;;;;;;15.25;100.00;100608.72;2072445;28;20049;-74
2023/04/18 02:14:07;;;;;;;10.80;6.50;;;;;;;15.26;100.00;100615.81;2072057;28;20081;-74
2023/04/18 02:15:28;;;;;;;13.48;6.82;;;;;;;15.24;100.00;100622.91;2070829;28;20037;-75
2023/04/18 02:16:50;;;;;;;13.82;7.50;;;;;;;15.22;100.00;100628.25;2077954;28;20092;-75
2023/04/18 02:18:13;;;;;;;13.32;7.78;;;;;;;15.20;100.00;100631.81;2077003;28;20060;-74
2023/04/18 02:19:34;;;;;;;17.10;8.70;;;;;;;15.16;100.00;100628.28;2081655;28;20049;-75
2023/04/18 02:20:56;;;;;;;12.75;7.78;;;;;;;15.14;100.00;100627.41;2084027;28;20041;-74
2023/04/18 02:22:17;;;;;;;13.57;8.10;;;;;;;15.12;100.00;100630.06;2077320;28;20104;-75
2023/04/18 02:23:40;;;;;;;17.65;8.85;;;;;;;15.10;100.00;100630.94;2075117;28;20060;-75
2023/04/18 02:25:03;;;;;;;13.93;8.65;;;;;;;15.09;100.00;100637.19;2068921;28;20038;-75
2023/04/18 02:26:26;;;;;;;15.95;8.98;;;;;;;15.07;100.00;100647.81;2075807;28;20053;-74
2023/04/18 02:27:51;;;;;;;14.55;8.55;;;;;;;15.05;100.00;100641.63;2069355;28;20708;-74
2023/04/18 02:29:14;;;;;;;16.02;8.82;;;;;;;15.03;100.00;100640.72;2077569;28;20037;-74
2023/04/18 02:30:35;;;;;;;13.93;8.18;;;;;;;15.00;100.00;100639.88;2064838;28;20058;-74
2023/04/18 02:31:58;;;;;;;16.08;9.45;;;;;;;14.97;100.00;100647.84;2061719;28;20148;-74
2023/04/18 02:33:20;;;;;;;21.83;9.55;;;;;;;14.95;100.00;100645.22;2067604;28;20041;-75
2023/04/18 02:34:42;;;;;;;16.45;9.52;;;;;;;14.93;100.00;100649.66;2075417;28;20056;-75
2023/04/18 02:36:04;;;;;;;19.08;10.98;;;;;;;14.93;100.00;100649.66;2075710;28;20041;-75
2023/04/18 02:37:27;;;;;;;16.95;8.80;;;;;;;14.92;100.00;100647.88;2076761;28;20229;-74
2023/04/18 02:38:48;;;;;;;19.80;8.90;;;;;;;14.91;100.00;100639.91;2072441;28;20465;-74
2023/04/18 02:40:13;;;;;;;11.55;8.07;;;;;;;14.92;100.00;100647.00;2066238;28;20057;-75
2023/04/18 02:41:36;;;;;;;15.38;8.70;;;;;;;14.89;100.00;100647.91;2067799;28;20058;-74
2023/04/18 02:42:58;;;;;;;14.45;8.23;;;;;;;14.89;100.00;100655.88;2069228;28;20049;-74
2023/04/18 02:44:20;;;;;;;14.07;8.35;;;;;;;14.88;100.00;100656.78;2064006;28;20041;-74
2023/04/18 02:45:42;;;;;;;12.63;8.32;;;;;;;14.87;100.00;100655.00;2067415;28;20181;-74
2023/04/18 02:47:04;;;;;;;14.80;9.30;;;;;;;14.88;100.00;100658.53;2067401;28;20184;-74
2023/04/18 02:48:26;;;;;;;23.73;9.20;;;;;;;14.87;100.00;100657.66;2073596;28;20042;-74
2023/04/18 02:49:49;;;;;;;18.88;9.88;;;;;;;14.88;100.00;100664.75;2071158;28;20358;-75
2023/04/18 02:51:12;;;;;;;20.45;9.93;;;;;;;14.87;100.00;100670.94;2074888;28;20045;-75
2023/04/18 02:52:33;;;;;;;15.25;9.00;;;;;;;14.87;100.00;100668.28;2069544;28;20472;-75
2023/04/18 02:53:57;;;;;;;20.60;10.38;;;;;;;14.88;100.00;100671.84;2066368;28;20148;-74
2023/04/18 02:55:25;;;;;;;19.13;9.73;;;;;;;14.89;100.00;100673.59;2067233;28;20525;-75
2023/04/18 02:56:48;;;;;;;18.10;9.20;;;;;;;14.89;100.00;100668.28;2066318;28;20050;-74
2023/04/18 02:58:20;;;;;;;18.40;9.88;;;;;;;14.90;100.00;100673.56;2068208;28;20045;-74
2023/04/18 02:59:46;;;;;;;19.27;10.18;;;;;;;14.91;100.00;100682.44;2076236;28;20461;-75
2023/04/18 03:01:26;;;;;;;20.08;9.85;;;;;;;14.84;100.00;100680.69;2080358;28;20440;-75
2023/04/18 03:03:09;;;;;;;14.82;9.57;;;;;;;14.80;100.00;100684.25;2079944;28;20053;-75
2023/04/18 03:04:36;;;;;;;17.15;10.10;;;;;;;14.80;100.00;100690.44;2067819;28;20088;-74
2023/04/18 03:06:01;;;;;;;20.67;10.85;;;;;;;14.81;100.00;100691.34;2067940;28;20056;-75
2023/04/18 03:07:26;;;;;;;16.98;10.73;;;;;;;14.82;100.00;100687.81;2065784;28;20473;-75
2023/04/18 03:08:47;;;;;;;20.08;10.57;;;;;;;14.83;100.00;100695.78;2066197;28;20046;-74
2023/04/18 03:10:10;;;;;;;19.92;10.70;;;;;;;14.85;100.00;100691.31;2061621;28;20491;-74
2023/04/18 03:11:35;;;;;;;19.88;10.52;;;;;;;14.85;100.00;100686.00;2077260;28;20488;-73
2023/04/18 03:12:57;;;;;;;21.35;11.10;;;;;;;14.83;100.00;100687.81;2064232;28;20458;-74
2023/04/18 03:14:20;;;;;;;15.07;10.55;;;;;;;14.82;100.00;100694.00;2066585;28;20473;-74
2023/04/18 03:15:47;;;;;;;19.52;11.00;;;;;;;14.81;100.00;100696.66;2068329;28;20046;-73
2023/04/18 03:17:09;;;;;;;22.08;11.05;;;;;;;14.80;100.00;100695.78;2066328;28;20046;-74
2023/04/18 03:18:35;;;;;;;19.23;10.32;;;;;;;14.78;100.00;100692.22;2066603;28;20682;-73
2023/04/18 03:19:57;;;;;;;18.23;10.88;;;;;;;14.79;100.00;100698.44;2069599;28;20583;-73
2023/04/18 03:21:19;;;;;;;23.70;11.60;;;;;;;14.77;100.00;100690.44;2066643;28;20106;-74
2023/04/18 03:22:41;;;;;;;19.65;11.15;;;;;;;14.77;100.00;100705.53;2077772;28;20073;-74
2023/04/18 03:24:04;;;;;;;19.35;10.80;;;;;;;14.77;100.00;100700.22;2076486;28;20134;-74
2023/04/18 03:25:26;;;;;;;20.85;11.15;;;;;;;14.79;100.00;100698.44;2077407;28;20898;-75
2023/04/18 03:26:50;;;;;;;17.63;10.35;;;;;;;14.81;100.00;100697.53;2072900;28;20045;-74
2023/04/18 03:28:16;;;;;;;18.90;10.02;;;;;;;14.82;100.00;100698.44;2067736;28;20046;-74
2023/04/18 03:29:39;;;;;;;16.02;10.00;;;;;;;14.82;100.00;100703.75;2058878;28;20108;-74
2023/04/18 03:31:00;;;;;;;19.58;10.50;;;;;;;14.82;100.00;100704.63;2058828;28;20089;-74
2023/04/18 03:32:23;;;;;;;20.50;10.23;;;;;;;14.84;100.00;100702.84;2058780;28;20044;-74
2023/04/18 03:33:46;;;;;;;17.25;10.00;;;;;;;14.85;100.00;100712.56;2073557;28;20060;-74
2023/04/18 03:35:08;;;;;;;20.50;10.73;;;;;;;14.86;100.00;100710.81;2077504;28;20049;-74
2023/04/18 03:36:31;;;;;;;19.60;10.73;;;;;;;14.86;100.00;100710.81;2068876;28;20104;-74
2023/04/18 03:37:52;;;;;;;19.75;9.70;;;;;;;14.82;100.00;100717.03;2067217;28;20402;-74
2023/04/18 03:39:20;;;;;;;20.88;11.05;;;;;;;14.76;100.00;100717.94;2068112;28;20040;-73
2023/04/18 03:40:43;;;;;;;21.30;10.73;;;;;;;14.71;100.00;100720.59;2069162;28;20452;-74
2023/04/18 03:42:14;;;;;;;20.80;10.35;;;;;;;14.68;100.00;100717.06;2062524;28;20054;-73
2023/04/18 03:43:38;;;;;;;16.10;10.80;;;;;;;14.69;100.00;100722.38;2068553;28;20041;-74
2023/04/18 03:45:00;;;;;;;22.67;11.65;;;;;;;14.72;100.00;100721.47;2068367;28;20145;-74
2023/04/18 03:46:23;;;;;;;20.27;11.18;;;;;;;14.75;100.00;100730.34;2071860;28;20049;-74
2023/04/18 03:47:47;;;;;;;15.32;10.10;;;;;;;14.79;100.00;100730.31;2067441;28;20587;-74
2023/04/18 03:49:10;;;;;;;18.27;9.35;;;;;;;14.81;100.00;100736.53;2066042;28;20144;-74
2023/04/18 03:50:32;;;;;;;18.35;9.80;;;;;;;14.81;100.00;100733.88;2073577;28;20087;-74
2023/04/18 03:51:55;;;;;;;16.88;9.07;;;;;;;14.81;100.00;100734.75;2077761;28;20132;-74
2023/04/18 03:53:20;;;;;;;18.17;9.10;;;;;;;14.85;100.00;100736.50;2065443;28;20144;-74
2023/04/18 03:54:43;;;;;;;17.83;8.73;;;;;;;14.89;100.00;100734.75;2066978;28;20042;-74
2023/04/18 03:56:06;;;;;;;17.48;9.25;;;;;;;14.94;100.00;100733.84;2071128;28;20464;-74
2023/04/18 03:57:43;;;;;;;19.15;10.00;;;;;;;14.99;100.00;100742.66;2065968;28;20494;-74
2023/04/18 03:59:11;;;;;;;15.65;8.18;;;;;;;15.00;100.00;100736.47;2069033;28;20046;-75
2023/04/18 04:00:36;;;;;;;16.38;8.65;;;;;;;15.01;100.00;100738.25;2065261;28;20065;-75
2023/04/18 04:02:03;;;;;;;13.20;8.07;;;;;;;15.03;100.00;100743.56;2061479;28;20529;-74
2023/04/18 04:03:26;;;;;;;16.05;8.88;;;;;;;15.02;100.00;100728.50;2074557;28;20049;-74
2023/04/18 04:04:49;;;;;;;17.60;8.60;;;;;;;15.02;100.00;100732.03;2077059;28;20128;-74
2023/04/18 04:06:11;;;;;;;14.35;8.02;;;;;;;15.04;100.00;100735.56;2068380;28;20095;-75
2023/04/18 04:07:33;;;;;;;16.02;8.68;;;;;;;15.06;100.00;100736.44;2065727;28;20109;-74
2023/04/18 04:08:56;;;;;;;16.85;8.98;;;;;;;15.11;100.00;100728.44;2076121;28;20099;-74
2023/04/18 04:10:19;;;;;;;17.40;9.05;;;;;;;15.12;100.00;100730.22;2071809;28;20441;-74
2023/04/18 04:11:44;;;;;;;14.90;8.77;;;;;;;15.13;100.00;100732.00;2068314;28;20496;-74
2023/04/18 04:13:09;;;;;;;14.55;8.18;;;;;;;15.12;100.00;100727.56;2074411;28;20413;-74
2023/04/18 04:14:34;;;;;;;14.63;8.45;;;;;;;15.13;100.00;100730.22;2068648;28;20125;-75
2023/04/18 04:15:57;;;;;;;14.82;8.18;;;;;;;15.19;100.00;100733.75;2066662;28;20058;-74
2023/04/18 04:17:19;;;;;;;16.67;8.60;;;;;;;15.27;100.00;100734.59;2069274;28;20096;-74
2023/04/18 04:18:41;;;;;;;16.30;7.82;;;;;;;15.35;100.00;100735.47;2069094;28;20049;-74
2023/04/18 04:20:05;;;;;;;14.02;8.07;;;;;;;15.44;100.00;100730.97;2063415;28;20505;-74
2023/04/18 04:21:27;;;;;;;22.15;9.68;;;;;;;15.49;100.00;100730.97;2058401;28;20668;-74
2023/04/18 04:22:49;;;;;;;13.82;8.32;;;;;;;15.55;100.00;100733.63;2066325;28;20184;-74
2023/04/18 04:24:12;;;;;;;12.55;9.23;;;;;;;15.61;100.00;100736.25;2073205;28;20041;-75
2023/04/18 04:25:38;;;;;;;18.10;9.80;;;;;;;15.72;100.00;100747.72;2068951;28;20048;-75
2023/04/18 04:27:09;;;;;;;16.95;8.90;;;;;;;15.81;100.00;100739.69;2067304;28;20042;-75
2023/04/18 04:28:34;;;;;;;16.85;10.50;;;;;;;15.86;100.00;100737.00;2064333;28;20434;-75
2023/04/18 04:29:59;;;;;;;16.95;9.68;;;;;;;15.86;100.00;100739.66;2066105;28;20399;-74
2023/04/18 04:31:22;;;;;;;16.52;10.38;;;;;;;15.87;100.00;100749.41;2066240;28;20048;-75
2023/04/18 04:32:46;;;;;;;16.83;9.02;;;;;;;15.84;100.00;100749.41;2064315;28;20064;-74
2023/04/18 04:34:07;;;;;;;14.50;7.97;;;;;;;15.83;100.00;100750.31;2065872;28;20057;-75
2023/04/18 04:35:30;;;;;;;13.15;8.30;;;;;;;15.86;100.00;100752.97;2064422;28;20065;-74
2023/04/18 04:36:53;;;;;;;14.27;9.23;;;;;;;15.93;100.00;100754.69;2074483;28;20129;-75
2023/04/18 04:38:15;;;;;;;14.25;8.73;;;;;;;16.01;100.00;100757.31;2068510;28;20128;-75
2023/04/18 04:39:42;;;;;;;16.88;9.00;;;;;;;16.07;100.00;100755.50;2063394;28;20064;-74
2023/04/18 04:41:29;;;;;;;18.25;8.90;;;;;;;16.15;100.00;100758.06;2071656;28;20038;-74
2023/04/18 04:42:52;;;;;;;17.05;8.45;;;;;;;16.19;100.00;100749.19;2071547;28;20478;-75
2023/04/18 04:44:21;;;;;;;14.93;8.57;;;;;;;16.25;100.00;100754.47;2067809;28;20057;-75
2023/04/18 04:45:44;;;;;;;17.38;9.32;;;;;;;16.30;100.00;100760.63;2065735;28;20082;-74
2023/04/18 04:47:06;;;;;;;18.73;8.85;;;;;;;16.37;100.00;100761.47;2061039;28;20149;-75
2023/04/18 04:48:32;;;;;;;19.60;9.23;;;;;;;16.40;100.00;100759.69;2059049;28;20038;-74
2023/04/18 04:49:53;;;;;;;13.23;8.63;;;;;;;16.44;100.00;100763.19;2071593;28;20467;-75
2023/04/18 04:51:15;;;;;;;14.40;7.80;;;;;;;16.48;100.00;100762.25;2060921;28;20051;-75
2023/04/18 04:52:39;;;;;;;16.63;7.72;;;;;;;16.49;100.00;100764.91;2075378;28;20053;-75
2023/04/18 04:54:01;;;;;;;21.52;9.48;;;;;;;16.51;100.00;100759.56;2067231;28;20057;-75
2023/04/18 04:55:23;;;;;;;15.80;8.07;;;;;;;16.51;100.00;100759.56;2076882;28;20037;-74
2023/04/18 04:56:46;;;;;;;16.65;8.68;;;;;;;16.53;100.00;100757.78;2068178;28;20045;-75
2023/04/18 04:58:08;;;;;;;13.70;8.85;;;;;;;16.53;100.00;100766.69;2068053;28;20056;-75
2023/04/18 04:59:55;;;;;;;14.10;8.70;;;;;;;16.54;100.00;100768.41;2066007;28;20585;-74
2023/04/18 05:01:17;;;;;;;18.45;9.13;;;;;;;16.54;100.00;100773.75;2077089;28;20045;-75
2023/04/18 05:02:39;;;;;;;17.92;8.85;;;;;;;16.55;100.00;100770.19;2067169;28;20137;-75
2023/04/18 05:04:02;;;;;;;14.70;8.30;;;;;;;16.54;100.00;100775.56;2084549;28;20083;-74
2023/04/18 05:05:24;;;;;;;17.50;9.27;;;;;;;16.50;100.00;100771.13;2078116;28;20751;-74
2023/04/18 05:06:47;;;;;;;16.55;9.23;;;;;;;16.46;100.00;100772.06;2070543;28;20083;-74
2023/04/18 05:08:09;;;;;;;16.52;9.32;;;;;;;16.41;100.00;100772.06;2070544;28;20037;-74
2023/04/18 05:09:31;;;;;;;18.20;9.20;;;;;;;16.38;100.00;100768.56;2079622;28;20045;-74
2023/04/18 05:10:54;;;;;;;13.60;8.35;;;;;;;16.37;100.00;100778.34;2075148;28;20041;-74
2023/04/18 05:12:17;;;;;;;14.60;8.23;;;;;;;16.39;100.00;100776.56;2069487;28;20049;-75
2023/04/18 05:13:39;;;;;;;14.88;8.75;;;;;;;16.43;100.00;100780.06;2076304;28;20143;-75
2023/04/18 05:15:03;;;;;;;17.67;10.63;;;;;;;16.46;100.00;100778.28;2078373;28;20440;-74
2023/04/18 05:16:26;;;;;;;17.98;10.02;;;;;;;16.52;100.00;100783.56;2083472;28;20041;-75
2023/04/18 05:17:48;;;;;;;16.27;10.27;;;;;;;16.59;100.00;100787.94;2081537;28;20152;-75
2023/04/18 05:19:10;;;;;;;17.65;9.27;;;;;;;16.66;100.00;100781.69;2078091;28;20064;-74
2023/04/18 05:20:31;;;;;;;16.55;10.38;;;;;;;16.76;100.00;100784.25;2078534;28;20041;-75
2023/04/18 05:21:54;;;;;;;16.30;9.25;;;;;;;16.84;100.00;100779.75;2078583;28;20053;-75
2023/04/18 05:23:16;;;;;;;17.92;8.02;;;;;;;16.91;100.00;100778.78;2083346;28;20097;-74
2023/04/18 05:24:40;;;;;;;18.92;8.40;;;;;;;16.97;100.00;100784.06;2079638;28;20053;-74
2023/04/18 05:26:01;;;;;;;16.17;8.50;;;;;;;17.05;100.00;100784.88;2070678;28;20053;-75
2023/04/18 05:27:23;;;;;;;17.08;9.23;;;;;;;17.12;100.00;100783.91;2062294;28;20045;-74
2023/04/18 05:28:46;;;;;;;14.38;8.45;;;;;;;17.16;100.00;100777.63;2076528;28;20041;-74
2023/04/18 05:30:11;;;;;;;18.70;9.40;;;;;;;17.23;100.00;100775.75;2064946;28;20474;-75
2023/04/18 05:31:34;;;;;;;16.67;9.40;;;;;;;17.25;100.00;100784.66;2076260;28;20095;-75
2023/04/18 05:32:56;;;;;;;19.20;10.68;;;;;;;17.31;100.00;100781.91;2072211;28;20042;-75
2023/04/18 05:34:19;;;;;;;16.95;9.02;;;;;;;17.39;100.00;100785.38;2069883;28;20119;-73
2023/04/18 05:35:41;;;;;;;15.93;8.77;;;;;;;17.57;100.00;100785.16;2067877;28;20034;-75
2023/04/18 05:37:03;;;;;;;16.38;8.45;;;;;;;17.78;100.00;100784.91;2073056;28;20545;-74
2023/04/18 05:38:25;;;;;;;14.25;8.60;;;;;;;17.95;100.00;100784.66;2075055;28;20049;-74
2023/04/18 05:39:48;;;;;;;15.00;8.40;;;;;;;18.06;100.00;100788.03;2078153;28;20049;-75
2023/04/18 05:41:10;;;;;;;13.05;7.90;;;;;;;18.14;100.00;100794.16;2070462;28;20120;-74
2023/04/18 05:42:32;;;;;;;14.13;7.97;;;;;;;18.20;100.00;100777.16;2070464;28;20050;-74
2023/04/18 05:43:55;;;;;;;14.68;7.88;;;;;;;18.24;100.00;100774.44;2074415;28;20042;-75
2023/04/18 05:45:19;;;;;;;15.88;7.93;;;;;;;18.30;100.00;100784.13;2072610;28;20049;-75
2023/04/18 05:46:41;;;;;;;14.23;7.32;;;;;;;18.39;100.00;100777.75;2070630;28;20596;-74
2023/04/18 05:48:03;;;;;;;12.93;6.97;;;;;;;18.73;100.00;100778.97;2074484;28;20045;-75
2023/04/18 05:49:25;;;;;;;12.43;6.60;;;;;;;19.11;100.00;100775.59;2076419;28;20516;-74
2023/04/18 05:50:47;;;;;;;10.50;5.90;;;;;;;19.44;100.00;100779.41;2078400;28;20084;-75
2023/04/18 05:52:10;;;;;;;13.10;5.88;;;;;;;19.72;100.00;100772.59;2078221;28;20103;-75
2023/04/18 05:53:32;;;;;;;14.18;6.28;;;;;;;19.97;100.00;100774.72;2072685;28;20084;-74
2023/04/18 05:54:54;;;;;;;14.20;5.90;;;;;;;20.19;100.00;100770.63;2080439;28;20086;-75
2023/04/18 05:56:17;;;;;;;14.68;6.03;;;;;;;20.36;100.00;100768.44;2071822;28;20517;-75
2023/04/18 05:57:39;;;;;;;14.57;6.10;;;;;;;20.51;100.00;100769.88;2082736;28;20049;-74
2023/04/18 05:59:01;;;;;;;11.02;5.82;;;;;;;20.71;100.00;100774.75;2077741;28;20100;-75
2023/04/18 06:00:26;;;;;;;11.63;5.80;;;;;;;20.88;100.00;100767.13;2072840;28;20034;-74
2023/04/18 06:01:49;;;;;;;12.25;5.60;;;;;;;21.00;100.00;100766.81;2070590;28;20064;-75
2023/04/18 06:03:12;;;;;;;12.73;7.53;;;;;;;21.07;100.00;100763.00;2077244;28;20068;-75
2023/04/18 06:04:33;;;;;;;15.98;10.00;;;;;;;21.17;100.00;100766.38;2072395;28;20054;-74
2023/04/18 06:05:55;;;;;;;15.68;7.50;;;;;;;21.32;100.00;100774.00;2071855;28;20139;-74
2023/04/18 06:07:18;;;;;;;13.63;6.25;;;;;;;21.48;100.00;100775.31;2081506;28;20049;-75
2023/04/18 06:08:40;;;;;;;10.10;5.25;;;;;;;21.65;100.00;100770.34;2080383;28;20516;-75
2023/04/18 06:10:04;;;;;;;15.52;7.25;;;;;;;21.79;100.00;100773.47;2087861;28;20061;-75
2023/04/18 06:11:26;;;;;;;13.75;7.78;;;;;;;21.77;100.00;100771.78;2078376;28;20449;-75
2023/04/18 06:12:49;;;;;;;14.48;7.00;;;;;;;21.60;100.00;100774.94;2080365;28;20050;-75
2023/04/18 06:14:11;;;;;;;14.35;7.55;;;;;;;21.57;100.00;100784.91;2076199;28;20073;-75
2023/04/18 06:15:35;;;;;;;21.17;8.05;;;;;;;21.69;100.00;100779.19;2086229;28;20060;-74
2023/04/18 06:16:57;;;;;;;17.42;8.38;;;;;;;21.78;100.00;100781.59;2073195;28;20136;-74
2023/04/18 06:18:20;;;;;;;14.50;7.25;;;;;;;21.97;100.00;100787.34;2071525;28;20046;-75
2023/04/18 06:19:42;;;;;;;14.38;7.05;;;;;;;22.15;100.00;100778.69;2085943;28;20056;-75